sensor_id;sensor_type;location;lat;lon;timestamp;P1;durP1;ratioP1;P2;durP2;ratioP2
45368;SDS011;51342;55.250;37.668;2023-02-01T00:03:57;32.47;;;14.70;;
45368;SDS011;51342;55.250;37.668;2023-02-01T00:06:29;33.10;;;14.57;;
45368;SDS011;51342;55.250;37.668;2023-02-01T00:09:00;32.63;;;14.60;;
45368;SDS011;51342;55.250;37.668;2023-02-01T00:11:32;31.80;;;14.33;;
45368;SDS011;51342;55.250;37.668;2023-02-01T00:14:03;36.20;;;14.73;;
45368;SDS011;51342;55.250;37.668;2023-02-01T00:16:35;32.13;;;15.17;;
45368;SDS011;51342;55.250;37.668;2023-02-01T00:19:09;32.10;;;14.43;;
45368;SDS011;51342;55.250;37.668;2023-02-01T00:21:42;30.97;;;14.43;;
45368;SDS011;51342;55.250;37.668;2023-02-01T00:24:15;34.63;;;17.03;;
45368;SDS011;51342;55.250;37.668;2023-02-01T00:26:46;34.10;;;16.43;;
45368;SDS011;51342;55.250;37.668;2023-02-01T00:29:18;30.43;;;14.23;;
45368;SDS011;51342;55.250;37.668;2023-02-01T00:31:51;32.50;;;14.90;;
45368;SDS011;51342;55.250;37.668;2023-02-01T00:34:23;34.00;;;16.53;;
45368;SDS011;51342;55.250;37.668;2023-02-01T00:36:54;36.87;;;15.57;;
45368;SDS011;51342;55.250;37.668;2023-02-01T00:39:26;34.20;;;15.23;;
45368;SDS011;51342;55.250;37.668;2023-02-01T00:41:59;33.97;;;14.97;;
45368;SDS011;51342;55.250;37.668;2023-02-01T00:44:31;32.03;;;15.20;;
45368;SDS011;51342;55.250;37.668;2023-02-01T00:47:05;38.57;;;15.63;;
45368;SDS011;51342;55.250;37.668;2023-02-01T00:49:36;36.13;;;15.77;;
45368;SDS011;51342;55.250;37.668;2023-02-01T00:52:08;31.40;;;14.90;;
45368;SDS011;51342;55.250;37.668;2023-02-01T00:54:39;31.80;;;15.63;;
45368;SDS011;51342;55.250;37.668;2023-02-01T00:57:10;33.10;;;14.53;;
45368;SDS011;51342;55.250;37.668;2023-02-01T00:59:42;34.33;;;16.47;;
45368;SDS011;51342;55.250;37.668;2023-02-01T01:02:13;36.10;;;16.13;;
45368;SDS011;51342;55.250;37.668;2023-02-01T01:04:45;35.20;;;16.50;;
45368;SDS011;51342;55.250;37.668;2023-02-01T01:07:16;32.77;;;15.70;;
45368;SDS011;51342;55.250;37.668;2023-02-01T01:09:48;32.93;;;14.23;;
45368;SDS011;51342;55.250;37.668;2023-02-01T01:12:19;32.70;;;14.63;;
45368;SDS011;51342;55.250;37.668;2023-02-01T01:14:50;34.23;;;15.87;;
45368;SDS011;51342;55.250;37.668;2023-02-01T01:17:22;34.90;;;15.80;;
45368;SDS011;51342;55.250;37.668;2023-02-01T01:19:54;35.80;;;16.43;;
45368;SDS011;51342;55.250;37.668;2023-02-01T01:22:25;30.90;;;15.73;;
45368;SDS011;51342;55.250;37.668;2023-02-01T01:24:56;35.53;;;16.50;;
45368;SDS011;51342;55.250;37.668;2023-02-01T01:27:28;33.17;;;16.20;;
45368;SDS011;51342;55.250;37.668;2023-02-01T01:29:59;31.37;;;14.77;;
45368;SDS011;51342;55.250;37.668;2023-02-01T01:32:30;34.33;;;15.67;;
45368;SDS011;51342;55.250;37.668;2023-02-01T01:35:02;29.13;;;13.53;;
45368;SDS011;51342;55.250;37.668;2023-02-01T01:37:34;33.03;;;15.17;;
45368;SDS011;51342;55.250;37.668;2023-02-01T01:40:06;31.37;;;14.57;;
45368;SDS011;51342;55.250;37.668;2023-02-01T01:42:43;33.30;;;14.77;;
45368;SDS011;51342;55.250;37.668;2023-02-01T01:48:13;34.07;;;14.87;;
45368;SDS011;51342;55.250;37.668;2023-02-01T01:51:03;36.33;;;15.17;;
45368;SDS011;51342;55.250;37.668;2023-02-01T01:56:18;33.53;;;14.93;;
45368;SDS011;51342;55.250;37.668;2023-02-01T01:58:51;31.73;;;15.57;;
45368;SDS011;51342;55.250;37.668;2023-02-01T02:01:23;33.53;;;15.43;;
45368;SDS011;51342;55.250;37.668;2023-02-01T02:03:55;37.00;;;17.10;;
45368;SDS011;51342;55.250;37.668;2023-02-01T02:09:11;35.37;;;15.87;;
45368;SDS011;51342;55.250;37.668;2023-02-01T02:11:43;33.07;;;15.20;;
45368;SDS011;51342;55.250;37.668;2023-02-01T02:14:14;35.80;;;16.60;;
45368;SDS011;51342;55.250;37.668;2023-02-01T02:19:49;36.37;;;15.77;;
45368;SDS011;51342;55.250;37.668;2023-02-01T02:25:31;35.20;;;15.00;;
45368;SDS011;51342;55.250;37.668;2023-02-01T02:31:36;32.77;;;14.33;;
45368;SDS011;51342;55.250;37.668;2023-02-01T02:34:54;34.23;;;14.97;;
45368;SDS011;51342;55.250;37.668;2023-02-01T02:40:08;32.57;;;16.17;;
45368;SDS011;51342;55.250;37.668;2023-02-01T02:48:51;34.93;;;15.50;;
45368;SDS011;51342;55.250;37.668;2023-02-01T02:51:46;35.43;;;16.23;;
45368;SDS011;51342;55.250;37.668;2023-02-01T02:54:46;36.30;;;15.83;;
45368;SDS011;51342;55.250;37.668;2023-02-01T03:00:20;35.87;;;15.73;;
45368;SDS011;51342;55.250;37.668;2023-02-01T03:03:14;40.20;;;16.90;;
45368;SDS011;51342;55.250;37.668;2023-02-01T03:06:03;37.63;;;15.90;;
45368;SDS011;51342;55.250;37.668;2023-02-01T03:08:41;35.43;;;15.10;;
45368;SDS011;51342;55.250;37.668;2023-02-01T03:11:16;36.00;;;16.10;;
45368;SDS011;51342;55.250;37.668;2023-02-01T03:13:52;37.97;;;16.23;;
45368;SDS011;51342;55.250;37.668;2023-02-01T03:16:35;41.13;;;16.67;;
45368;SDS011;51342;55.250;37.668;2023-02-01T03:21:59;35.83;;;16.07;;
45368;SDS011;51342;55.250;37.668;2023-02-01T03:24:46;34.47;;;15.90;;
45368;SDS011;51342;55.250;37.668;2023-02-01T03:30:03;36.60;;;16.37;;
45368;SDS011;51342;55.250;37.668;2023-02-01T03:32:40;36.03;;;15.80;;
45368;SDS011;51342;55.250;37.668;2023-02-01T03:38:23;37.03;;;16.60;;
45368;SDS011;51342;55.250;37.668;2023-02-01T03:43:48;38.57;;;16.77;;
45368;SDS011;51342;55.250;37.668;2023-02-01T03:46:33;35.70;;;16.40;;
45368;SDS011;51342;55.250;37.668;2023-02-01T03:49:09;33.17;;;16.43;;
45368;SDS011;51342;55.250;37.668;2023-02-01T03:51:43;39.03;;;16.33;;
45368;SDS011;51342;55.250;37.668;2023-02-01T03:54:14;40.97;;;16.87;;
45368;SDS011;51342;55.250;37.668;2023-02-01T03:56:48;37.80;;;16.30;;
45368;SDS011;51342;55.250;37.668;2023-02-01T03:59:23;35.50;;;16.40;;
45368;SDS011;51342;55.250;37.668;2023-02-01T04:01:55;38.50;;;16.83;;
45368;SDS011;51342;55.250;37.668;2023-02-01T04:04:26;37.47;;;16.33;;
45368;SDS011;51342;55.250;37.668;2023-02-01T04:07:00;37.47;;;17.47;;
45368;SDS011;51342;55.250;37.668;2023-02-01T04:09:31;37.97;;;17.03;;
45368;SDS011;51342;55.250;37.668;2023-02-01T04:12:03;36.87;;;16.83;;
45368;SDS011;51342;55.250;37.668;2023-02-01T04:14:34;36.77;;;15.63;;
45368;SDS011;51342;55.250;37.668;2023-02-01T04:17:06;37.67;;;18.47;;
45368;SDS011;51342;55.250;37.668;2023-02-01T04:19:37;32.67;;;15.33;;
45368;SDS011;51342;55.250;37.668;2023-02-01T04:22:08;39.03;;;16.80;;
45368;SDS011;51342;55.250;37.668;2023-02-01T04:24:40;34.67;;;16.70;;
45368;SDS011;51342;55.250;37.668;2023-02-01T04:27:11;29.93;;;15.57;;
45368;SDS011;51342;55.250;37.668;2023-02-01T04:29:43;36.77;;;15.93;;
45368;SDS011;51342;55.250;37.668;2023-02-01T04:32:16;37.87;;;15.80;;
45368;SDS011;51342;55.250;37.668;2023-02-01T04:34:47;36.27;;;15.87;;
45368;SDS011;51342;55.250;37.668;2023-02-01T04:37:19;34.83;;;15.60;;
45368;SDS011;51342;55.250;37.668;2023-02-01T04:39:50;35.57;;;15.87;;
45368;SDS011;51342;55.250;37.668;2023-02-01T04:42:22;34.03;;;16.43;;
45368;SDS011;51342;55.250;37.668;2023-02-01T04:44:53;37.03;;;18.07;;
45368;SDS011;51342;55.250;37.668;2023-02-01T04:47:25;35.03;;;16.10;;
45368;SDS011;51342;55.250;37.668;2023-02-01T04:49:57;34.07;;;15.47;;
45368;SDS011;51342;55.250;37.668;2023-02-01T04:52:28;36.23;;;16.53;;
45368;SDS011;51342;55.250;37.668;2023-02-01T04:55:03;34.90;;;15.70;;
45368;SDS011;51342;55.250;37.668;2023-02-01T04:57:34;35.27;;;15.10;;
45368;SDS011;51342;55.250;37.668;2023-02-01T05:00:06;31.80;;;15.07;;
45368;SDS011;51342;55.250;37.668;2023-02-01T05:02:39;33.33;;;15.20;;
45368;SDS011;51342;55.250;37.668;2023-02-01T05:05:10;36.47;;;16.60;;
45368;SDS011;51342;55.250;37.668;2023-02-01T05:07:42;33.57;;;15.07;;
45368;SDS011;51342;55.250;37.668;2023-02-01T05:10:13;33.40;;;14.23;;
45368;SDS011;51342;55.250;37.668;2023-02-01T05:12:45;30.50;;;14.93;;
45368;SDS011;51342;55.250;37.668;2023-02-01T05:15:34;32.67;;;15.73;;
45368;SDS011;51342;55.250;37.668;2023-02-01T05:18:06;36.87;;;15.67;;
45368;SDS011;51342;55.250;37.668;2023-02-01T05:20:37;32.87;;;15.27;;
45368;SDS011;51342;55.250;37.668;2023-02-01T05:23:09;30.97;;;15.10;;
45368;SDS011;51342;55.250;37.668;2023-02-01T05:25:40;34.53;;;15.00;;
45368;SDS011;51342;55.250;37.668;2023-02-01T05:28:12;31.33;;;14.20;;
45368;SDS011;51342;55.250;37.668;2023-02-01T05:30:43;35.87;;;15.33;;
45368;SDS011;51342;55.250;37.668;2023-02-01T05:33:15;28.70;;;13.27;;
45368;SDS011;51342;55.250;37.668;2023-02-01T05:35:46;32.93;;;14.93;;
45368;SDS011;51342;55.250;37.668;2023-02-01T05:38:17;33.77;;;14.97;;
45368;SDS011;51342;55.250;37.668;2023-02-01T05:40:49;37.03;;;15.97;;
45368;SDS011;51342;55.250;37.668;2023-02-01T05:43:20;32.70;;;15.30;;
45368;SDS011;51342;55.250;37.668;2023-02-01T05:45:52;32.37;;;14.30;;
45368;SDS011;51342;55.250;37.668;2023-02-01T05:48:24;33.03;;;15.03;;
45368;SDS011;51342;55.250;37.668;2023-02-01T05:50:55;31.97;;;15.23;;
45368;SDS011;51342;55.250;37.668;2023-02-01T05:53:26;32.07;;;14.77;;
45368;SDS011;51342;55.250;37.668;2023-02-01T05:55:58;29.93;;;14.40;;
45368;SDS011;51342;55.250;37.668;2023-02-01T05:58:29;29.40;;;14.20;;
45368;SDS011;51342;55.250;37.668;2023-02-01T06:01:02;33.17;;;15.33;;
45368;SDS011;51342;55.250;37.668;2023-02-01T06:03:34;30.87;;;14.00;;
45368;SDS011;51342;55.250;37.668;2023-02-01T06:06:06;31.07;;;14.83;;
45368;SDS011;51342;55.250;37.668;2023-02-01T06:08:39;32.47;;;15.27;;
45368;SDS011;51342;55.250;37.668;2023-02-01T06:11:13;34.43;;;15.23;;
45368;SDS011;51342;55.250;37.668;2023-02-01T06:13:44;30.80;;;14.17;;
45368;SDS011;51342;55.250;37.668;2023-02-01T06:16:15;33.73;;;14.03;;
45368;SDS011;51342;55.250;37.668;2023-02-01T06:18:47;29.70;;;14.23;;
45368;SDS011;51342;55.250;37.668;2023-02-01T06:21:18;30.70;;;15.27;;
45368;SDS011;51342;55.250;37.668;2023-02-01T06:23:54;30.13;;;13.57;;
45368;SDS011;51342;55.250;37.668;2023-02-01T06:26:28;32.73;;;14.63;;
45368;SDS011;51342;55.250;37.668;2023-02-01T06:29:00;30.03;;;14.73;;
45368;SDS011;51342;55.250;37.668;2023-02-01T06:31:31;30.20;;;15.57;;
45368;SDS011;51342;55.250;37.668;2023-02-01T06:34:03;36.03;;;15.53;;
45368;SDS011;51342;55.250;37.668;2023-02-01T06:36:34;30.93;;;14.37;;
45368;SDS011;51342;55.250;37.668;2023-02-01T06:39:06;31.57;;;14.83;;
45368;SDS011;51342;55.250;37.668;2023-02-01T06:41:38;27.10;;;14.00;;
45368;SDS011;51342;55.250;37.668;2023-02-01T06:44:09;27.33;;;13.27;;
45368;SDS011;51342;55.250;37.668;2023-02-01T06:46:41;29.67;;;14.77;;
45368;SDS011;51342;55.250;37.668;2023-02-01T06:49:13;31.10;;;14.83;;
45368;SDS011;51342;55.250;37.668;2023-02-01T06:51:44;29.70;;;14.60;;
45368;SDS011;51342;55.250;37.668;2023-02-01T06:54:16;31.50;;;14.20;;
45368;SDS011;51342;55.250;37.668;2023-02-01T06:56:47;33.07;;;15.13;;
45368;SDS011;51342;55.250;37.668;2023-02-01T06:59:18;28.70;;;14.50;;
45368;SDS011;51342;55.250;37.668;2023-02-01T07:01:50;30.10;;;15.47;;
45368;SDS011;51342;55.250;37.668;2023-02-01T07:04:21;28.27;;;14.30;;
45368;SDS011;51342;55.250;37.668;2023-02-01T07:06:53;31.33;;;14.77;;
45368;SDS011;51342;55.250;37.668;2023-02-01T07:09:24;29.13;;;15.17;;
45368;SDS011;51342;55.250;37.668;2023-02-01T07:11:55;29.93;;;14.57;;
45368;SDS011;51342;55.250;37.668;2023-02-01T07:14:27;30.27;;;15.07;;
45368;SDS011;51342;55.250;37.668;2023-02-01T07:16:58;32.93;;;16.10;;
45368;SDS011;51342;55.250;37.668;2023-02-01T07:19:30;31.93;;;15.73;;
45368;SDS011;51342;55.250;37.668;2023-02-01T07:22:01;32.40;;;15.33;;
45368;SDS011;51342;55.250;37.668;2023-02-01T07:24:33;34.57;;;16.67;;
45368;SDS011;51342;55.250;37.668;2023-02-01T07:27:05;26.80;;;13.37;;
45368;SDS011;51342;55.250;37.668;2023-02-01T07:29:36;31.17;;;13.60;;
45368;SDS011;51342;55.250;37.668;2023-02-01T07:32:08;28.20;;;15.17;;
45368;SDS011;51342;55.250;37.668;2023-02-01T07:34:39;30.70;;;15.70;;
45368;SDS011;51342;55.250;37.668;2023-02-01T07:37:11;26.47;;;14.17;;
45368;SDS011;51342;55.250;37.668;2023-02-01T07:39:42;31.03;;;15.07;;
45368;SDS011;51342;55.250;37.668;2023-02-01T07:42:13;29.67;;;14.10;;
45368;SDS011;51342;55.250;37.668;2023-02-01T07:44:45;30.50;;;14.53;;
45368;SDS011;51342;55.250;37.668;2023-02-01T07:47:16;27.97;;;15.23;;
45368;SDS011;51342;55.250;37.668;2023-02-01T07:49:48;30.00;;;15.10;;
45368;SDS011;51342;55.250;37.668;2023-02-01T07:52:19;29.90;;;15.57;;
45368;SDS011;51342;55.250;37.668;2023-02-01T07:54:51;28.80;;;14.23;;
45368;SDS011;51342;55.250;37.668;2023-02-01T07:57:22;27.53;;;14.57;;
45368;SDS011;51342;55.250;37.668;2023-02-01T07:59:53;28.53;;;14.87;;
45368;SDS011;51342;55.250;37.668;2023-02-01T08:02:43;30.63;;;15.87;;
45368;SDS011;51342;55.250;37.668;2023-02-01T08:05:14;34.40;;;16.67;;
45368;SDS011;51342;55.250;37.668;2023-02-01T08:07:49;27.30;;;14.83;;
45368;SDS011;51342;55.250;37.668;2023-02-01T08:10:21;28.27;;;14.60;;
45368;SDS011;51342;55.250;37.668;2023-02-01T08:12:57;29.87;;;15.33;;
45368;SDS011;51342;55.250;37.668;2023-02-01T08:18:01;25.13;;;13.53;;
45368;SDS011;51342;55.250;37.668;2023-02-01T08:20:33;25.77;;;14.17;;
45368;SDS011;51342;55.250;37.668;2023-02-01T08:23:09;30.23;;;15.73;;
45368;SDS011;51342;55.250;37.668;2023-02-01T08:25:41;28.60;;;15.63;;
45368;SDS011;51342;55.250;37.668;2023-02-01T08:28:12;32.30;;;15.80;;
45368;SDS011;51342;55.250;37.668;2023-02-01T08:30:44;30.37;;;15.93;;
45368;SDS011;51342;55.250;37.668;2023-02-01T08:33:15;30.47;;;14.73;;
45368;SDS011;51342;55.250;37.668;2023-02-01T08:35:47;29.90;;;16.07;;
45368;SDS011;51342;55.250;37.668;2023-02-01T08:38:18;28.77;;;15.10;;
45368;SDS011;51342;55.250;37.668;2023-02-01T08:40:50;31.23;;;15.40;;
45368;SDS011;51342;55.250;37.668;2023-02-01T08:43:21;30.73;;;14.73;;
45368;SDS011;51342;55.250;37.668;2023-02-01T08:45:53;30.80;;;15.03;;
45368;SDS011;51342;55.250;37.668;2023-02-01T08:48:26;32.63;;;16.57;;
45368;SDS011;51342;55.250;37.668;2023-02-01T08:51:00;28.87;;;15.17;;
45368;SDS011;51342;55.250;37.668;2023-02-01T08:53:36;28.73;;;14.73;;
45368;SDS011;51342;55.250;37.668;2023-02-01T08:56:09;27.43;;;14.47;;
45368;SDS011;51342;55.250;37.668;2023-02-01T08:58:42;28.97;;;15.53;;
45368;SDS011;51342;55.250;37.668;2023-02-01T09:01:15;28.60;;;15.47;;
45368;SDS011;51342;55.250;37.668;2023-02-01T09:03:47;27.07;;;14.77;;
45368;SDS011;51342;55.250;37.668;2023-02-01T09:06:19;28.40;;;14.97;;
45368;SDS011;51342;55.250;37.668;2023-02-01T09:08:50;31.27;;;14.83;;
45368;SDS011;51342;55.250;37.668;2023-02-01T09:11:22;30.13;;;15.40;;
45368;SDS011;51342;55.250;37.668;2023-02-01T09:13:53;30.53;;;15.00;;
45368;SDS011;51342;55.250;37.668;2023-02-01T09:16:25;26.53;;;14.63;;
45368;SDS011;51342;55.250;37.668;2023-02-01T09:18:56;28.53;;;14.43;;
45368;SDS011;51342;55.250;37.668;2023-02-01T09:21:28;30.60;;;14.57;;
45368;SDS011;51342;55.250;37.668;2023-02-01T09:24:00;26.03;;;14.17;;
45368;SDS011;51342;55.250;37.668;2023-02-01T09:26:32;28.57;;;14.17;;
45368;SDS011;51342;55.250;37.668;2023-02-01T09:29:03;27.80;;;14.60;;
45368;SDS011;51342;55.250;37.668;2023-02-01T09:31:40;25.15;;;14.38;;
45368;SDS011;51342;55.250;37.668;2023-02-01T09:34:12;29.97;;;14.90;;
45368;SDS011;51342;55.250;37.668;2023-02-01T09:36:44;26.93;;;14.80;;
45368;SDS011;51342;55.250;37.668;2023-02-01T09:39:15;26.67;;;13.90;;
45368;SDS011;51342;55.250;37.668;2023-02-01T09:47:58;26.57;;;15.07;;
45368;SDS011;51342;55.250;37.668;2023-02-01T09:50:35;25.10;;;14.33;;
45368;SDS011;51342;55.250;37.668;2023-02-01T09:53:12;27.37;;;14.33;;
45368;SDS011;51342;55.250;37.668;2023-02-01T09:55:47;25.88;;;13.70;;
45368;SDS011;51342;55.250;37.668;2023-02-01T09:58:29;24.13;;;13.40;;
45368;SDS011;51342;55.250;37.668;2023-02-01T10:01:11;26.08;;;14.80;;
45368;SDS011;51342;55.250;37.668;2023-02-01T10:03:58;23.67;;;12.60;;
45368;SDS011;51342;55.250;37.668;2023-02-01T10:06:49;21.65;;;13.23;;
45368;SDS011;51342;55.250;37.668;2023-02-01T10:12:58;18.35;;;12.02;;
45368;SDS011;51342;55.250;37.668;2023-02-01T10:24:28;17.80;;;10.30;;
45368;SDS011;51342;55.250;37.668;2023-02-01T10:27:13;17.47;;;10.03;;
45368;SDS011;51342;55.250;37.668;2023-02-01T10:29:59;20.03;;;10.87;;
45368;SDS011;51342;55.250;37.668;2023-02-01T10:32:45;21.27;;;11.73;;
45368;SDS011;51342;55.250;37.668;2023-02-01T10:35:28;19.43;;;10.63;;
45368;SDS011;51342;55.250;37.668;2023-02-01T10:38:11;19.07;;;9.93;;
45368;SDS011;51342;55.250;37.668;2023-02-01T10:41:03;19.10;;;10.90;;
45368;SDS011;51342;55.250;37.668;2023-02-01T10:43:57;21.10;;;11.90;;
45368;SDS011;51342;55.250;37.668;2023-02-01T10:46:31;16.00;;;9.77;;
45368;SDS011;51342;55.250;37.668;2023-02-01T10:49:04;22.70;;;11.47;;
45368;SDS011;51342;55.250;37.668;2023-02-01T10:51:43;23.03;;;11.73;;
45368;SDS011;51342;55.250;37.668;2023-02-01T10:54:21;20.67;;;10.93;;
45368;SDS011;51342;55.250;37.668;2023-02-01T10:57:05;21.00;;;10.30;;
45368;SDS011;51342;55.250;37.668;2023-02-01T10:59:48;22.00;;;12.23;;
45368;SDS011;51342;55.250;37.668;2023-02-01T11:05:12;21.90;;;11.27;;
45368;SDS011;51342;55.250;37.668;2023-02-01T11:07:51;19.27;;;10.17;;
45368;SDS011;51342;55.250;37.668;2023-02-01T11:10:37;19.83;;;10.47;;
45368;SDS011;51342;55.250;37.668;2023-02-01T11:13:15;19.23;;;10.23;;
45368;SDS011;51342;55.250;37.668;2023-02-01T11:15:54;19.23;;;10.98;;
45368;SDS011;51342;55.250;37.668;2023-02-01T11:18:27;21.20;;;10.33;;
45368;SDS011;51342;55.250;37.668;2023-02-01T11:21:00;21.10;;;10.77;;
45368;SDS011;51342;55.250;37.668;2023-02-01T11:23:32;19.07;;;10.70;;
45368;SDS011;51342;55.250;37.668;2023-02-01T11:26:11;19.00;;;9.77;;
45368;SDS011;51342;55.250;37.668;2023-02-01T11:28:50;18.47;;;9.40;;
45368;SDS011;51342;55.250;37.668;2023-02-01T11:31:29;16.90;;;9.47;;
45368;SDS011;51342;55.250;37.668;2023-02-01T11:34:22;18.30;;;9.07;;
45368;SDS011;51342;55.250;37.668;2023-02-01T11:36:56;17.03;;;8.23;;
45368;SDS011;51342;55.250;37.668;2023-02-01T11:39:32;16.77;;;7.93;;
45368;SDS011;51342;55.250;37.668;2023-02-01T11:42:15;15.33;;;8.33;;
45368;SDS011;51342;55.250;37.668;2023-02-01T11:44:47;15.47;;;8.67;;
45368;SDS011;51342;55.250;37.668;2023-02-01T11:47:20;15.03;;;7.93;;
45368;SDS011;51342;55.250;37.668;2023-02-01T11:49:55;15.50;;;8.77;;
45368;SDS011;51342;55.250;37.668;2023-02-01T11:55:33;15.93;;;8.30;;
45368;SDS011;51342;55.250;37.668;2023-02-01T12:03:47;15.30;;;7.73;;
45368;SDS011;51342;55.250;37.668;2023-02-01T12:09:12;13.10;;;7.73;;
45368;SDS011;51342;55.250;37.668;2023-02-01T12:15:08;17.30;;;9.33;;
45368;SDS011;51342;55.250;37.668;2023-02-01T12:29:32;18.03;;;9.33;;
45368;SDS011;51342;55.250;37.668;2023-02-01T12:41:28;17.50;;;9.07;;
45368;SDS011;51342;55.250;37.668;2023-02-01T12:47:42;16.10;;;7.70;;
45368;SDS011;51342;55.250;37.668;2023-02-01T12:50:42;12.83;;;7.07;;
45368;SDS011;51342;55.250;37.668;2023-02-01T12:53:25;15.50;;;7.80;;
45368;SDS011;51342;55.250;37.668;2023-02-01T12:56:07;14.47;;;8.10;;
45368;SDS011;51342;55.250;37.668;2023-02-01T13:01:22;14.40;;;7.63;;
45368;SDS011;51342;55.250;37.668;2023-02-01T13:06:47;16.27;;;8.57;;
45368;SDS011;51342;55.250;37.668;2023-02-01T13:12:17;15.63;;;8.17;;
45368;SDS011;51342;55.250;37.668;2023-02-01T13:14:55;13.87;;;8.43;;
45368;SDS011;51342;55.250;37.668;2023-02-01T13:17:36;13.93;;;7.73;;
45368;SDS011;51342;55.250;37.668;2023-02-01T13:22:43;14.43;;;8.20;;
45368;SDS011;51342;55.250;37.668;2023-02-01T13:25:32;16.00;;;9.17;;
45368;SDS011;51342;55.250;37.668;2023-02-01T13:28:14;18.67;;;10.00;;
45368;SDS011;51342;55.250;37.668;2023-02-01T13:39:48;27.23;;;13.40;;
45368;SDS011;51342;55.250;37.668;2023-02-01T13:42:29;24.53;;;12.70;;
45368;SDS011;51342;55.250;37.668;2023-02-01T13:45:05;25.23;;;12.00;;
45368;SDS011;51342;55.250;37.668;2023-02-01T13:47:55;23.13;;;12.63;;
45368;SDS011;51342;55.250;37.668;2023-02-01T13:50:38;26.17;;;13.57;;
45368;SDS011;51342;55.250;37.668;2023-02-01T13:55:46;23.87;;;13.77;;
45368;SDS011;51342;55.250;37.668;2023-02-01T13:58:31;24.67;;;12.57;;
45368;SDS011;51342;55.250;37.668;2023-02-01T14:03:55;27.10;;;14.60;;
45368;SDS011;51342;55.250;37.668;2023-02-01T14:09:10;22.97;;;13.13;;
45368;SDS011;51342;55.250;37.668;2023-02-01T14:19:30;25.53;;;12.83;;
45368;SDS011;51342;55.250;37.668;2023-02-01T14:24:56;24.17;;;12.40;;
45368;SDS011;51342;55.250;37.668;2023-02-01T14:27:29;24.20;;;12.27;;
45368;SDS011;51342;55.250;37.668;2023-02-01T14:30:07;22.77;;;12.13;;
45368;SDS011;51342;55.250;37.668;2023-02-01T14:32:45;23.13;;;11.73;;
45368;SDS011;51342;55.250;37.668;2023-02-01T14:35:21;23.47;;;11.60;;
45368;SDS011;51342;55.250;37.668;2023-02-01T14:38:00;23.27;;;12.40;;
45368;SDS011;51342;55.250;37.668;2023-02-01T14:40:38;22.53;;;11.43;;
45368;SDS011;51342;55.250;37.668;2023-02-01T14:43:09;23.33;;;12.83;;
45368;SDS011;51342;55.250;37.668;2023-02-01T14:50:47;22.93;;;11.77;;
45368;SDS011;51342;55.250;37.668;2023-02-01T14:53:27;28.27;;;12.60;;
45368;SDS011;51342;55.250;37.668;2023-02-01T14:56:06;23.23;;;12.33;;
45368;SDS011;51342;55.250;37.668;2023-02-01T15:03:49;23.37;;;11.80;;
45368;SDS011;51342;55.250;37.668;2023-02-01T15:09:07;22.97;;;11.27;;
45368;SDS011;51342;55.250;37.668;2023-02-01T15:14:47;21.60;;;11.03;;
45368;SDS011;51342;55.250;37.668;2023-02-01T15:17:34;23.50;;;12.10;;
45368;SDS011;51342;55.250;37.668;2023-02-01T15:20:13;23.80;;;11.20;;
45368;SDS011;51342;55.250;37.668;2023-02-01T15:25:37;22.08;;;10.98;;
45368;SDS011;51342;55.250;37.668;2023-02-01T15:28:13;20.23;;;10.57;;
45368;SDS011;51342;55.250;37.668;2023-02-01T15:30:59;20.00;;;10.67;;
45368;SDS011;51342;55.250;37.668;2023-02-01T15:33:32;23.60;;;11.15;;
45368;SDS011;51342;55.250;37.668;2023-02-01T15:36:11;20.13;;;11.80;;
45368;SDS011;51342;55.250;37.668;2023-02-01T15:38:48;21.90;;;10.37;;
45368;SDS011;51342;55.250;37.668;2023-02-01T15:41:42;19.10;;;9.93;;
45368;SDS011;51342;55.250;37.668;2023-02-01T15:47:23;14.40;;;7.87;;
45368;SDS011;51342;55.250;37.668;2023-02-01T15:49:59;19.07;;;10.40;;
45368;SDS011;51342;55.250;37.668;2023-02-01T15:52:36;19.27;;;10.23;;
45368;SDS011;51342;55.250;37.668;2023-02-01T15:55:24;19.30;;;10.80;;
45368;SDS011;51342;55.250;37.668;2023-02-01T15:58:09;18.87;;;9.37;;
45368;SDS011;51342;55.250;37.668;2023-02-01T16:01:02;21.03;;;10.43;;
45368;SDS011;51342;55.250;37.668;2023-02-01T16:03:38;19.03;;;9.97;;
45368;SDS011;51342;55.250;37.668;2023-02-01T16:08:52;19.38;;;9.65;;
45368;SDS011;51342;55.250;37.668;2023-02-01T16:11:27;18.13;;;9.50;;
45368;SDS011;51342;55.250;37.668;2023-02-01T16:14:03;16.77;;;9.40;;
45368;SDS011;51342;55.250;37.668;2023-02-01T16:16:34;17.10;;;8.93;;
45368;SDS011;51342;55.250;37.668;2023-02-01T16:19:05;15.90;;;8.27;;
45368;SDS011;51342;55.250;37.668;2023-02-01T16:21:37;16.63;;;8.20;;
45368;SDS011;51342;55.250;37.668;2023-02-01T16:24:09;15.20;;;8.23;;
45368;SDS011;51342;55.250;37.668;2023-02-01T16:26:40;15.33;;;6.97;;
45368;SDS011;51342;55.250;37.668;2023-02-01T16:29:12;11.23;;;6.77;;
45368;SDS011;51342;55.250;37.668;2023-02-01T16:31:43;11.03;;;6.47;;
45368;SDS011;51342;55.250;37.668;2023-02-01T16:34:15;13.57;;;6.80;;
45368;SDS011;51342;55.250;37.668;2023-02-01T16:36:50;9.77;;;5.97;;
45368;SDS011;51342;55.250;37.668;2023-02-01T16:39:27;10.67;;;6.07;;
45368;SDS011;51342;55.250;37.668;2023-02-01T16:41:59;10.60;;;5.93;;
45368;SDS011;51342;55.250;37.668;2023-02-01T16:44:30;10.57;;;6.30;;
45368;SDS011;51342;55.250;37.668;2023-02-01T16:47:02;12.43;;;6.57;;
45368;SDS011;51342;55.250;37.668;2023-02-01T16:49:33;13.60;;;7.00;;
45368;SDS011;51342;55.250;37.668;2023-02-01T16:52:05;12.97;;;7.30;;
45368;SDS011;51342;55.250;37.668;2023-02-01T16:54:36;14.43;;;7.60;;
45368;SDS011;51342;55.250;37.668;2023-02-01T16:57:11;16.63;;;8.17;;
45368;SDS011;51342;55.250;37.668;2023-02-01T16:59:44;15.18;;;8.27;;
45368;SDS011;51342;55.250;37.668;2023-02-01T17:02:17;14.43;;;8.00;;
45368;SDS011;51342;55.250;37.668;2023-02-01T17:04:54;14.23;;;8.00;;
45368;SDS011;51342;55.250;37.668;2023-02-01T17:07:25;13.63;;;7.83;;
45368;SDS011;51342;55.250;37.668;2023-02-01T17:09:57;14.37;;;8.13;;
45368;SDS011;51342;55.250;37.668;2023-02-01T17:12:29;15.47;;;8.97;;
45368;SDS011;51342;55.250;37.668;2023-02-01T17:15:03;13.63;;;8.10;;
45368;SDS011;51342;55.250;37.668;2023-02-01T17:17:37;12.73;;;7.83;;
45368;SDS011;51342;55.250;37.668;2023-02-01T17:20:17;15.80;;;8.07;;
45368;SDS011;51342;55.250;37.668;2023-02-01T17:22:51;15.83;;;8.33;;
45368;SDS011;51342;55.250;37.668;2023-02-01T17:25:23;15.67;;;8.03;;
45368;SDS011;51342;55.250;37.668;2023-02-01T17:27:56;14.30;;;7.97;;
45368;SDS011;51342;55.250;37.668;2023-02-01T17:30:28;14.17;;;7.93;;
45368;SDS011;51342;55.250;37.668;2023-02-01T17:33:00;13.77;;;8.77;;
45368;SDS011;51342;55.250;37.668;2023-02-01T17:35:31;14.40;;;9.13;;
45368;SDS011;51342;55.250;37.668;2023-02-01T17:38:05;16.57;;;9.30;;
45368;SDS011;51342;55.250;37.668;2023-02-01T17:40:41;16.77;;;9.33;;
45368;SDS011;51342;55.250;37.668;2023-02-01T17:43:13;16.33;;;9.37;;
45368;SDS011;51342;55.250;37.668;2023-02-01T17:45:51;18.40;;;9.27;;